Time;durP1;ratioP1;P1;durP2;ratioP2;P2;SDS_P1;SDS_P2;PMS_P1;PMS_P2;Temp;Humidity;BMP_temperature;BMP_pressure;BME280_temperature;BME280_humidity;BME280_pressure;Samples;Min_cycle;Max_cycle;Signal;HPM_P1;HPM_P2
2022/12/27 00:00:13;;;;;;;;;;;;;;;;;;5054378;28;1081;-71
2022/12/27 00:02:40;;;;;;;;;;;;;;;;;;5052608;28;1096;-71
2022/12/27 00:05:09;;;;;;;;;;;;;;;;;;5054024;28;1328;-71
2022/12/27 00:07:35;;;;;;;;;;;;;;;;;;5047373;28;1466;-71
2022/12/27 00:10:01;;;;;;;;;;;;;;;;;;5049115;28;1918;-71
2022/12/27 00:12:28;;;;;;;;;;;;;;;;;;5050491;28;1072;-71
2022/12/27 00:14:54;;;;;;;;;;;;;;;;;;5050119;28;1294;-72
2022/12/27 00:17:20;;;;;;;;;;;;;;;;;;5052473;28;1282;-71
2022/12/27 00:19:46;;;;;;;;;;;;;;;;;;5049887;28;1081;-72
2022/12/27 00:22:14;;;;;;;;;;;;;;;;;;5048486;28;1132;-71
2022/12/27 00:24:40;;;;;;;;;;;;;;;;;;5049553;28;1321;-72
2022/12/27 00:27:06;;;;;;;;;;;;;;;;;;5049996;28;1060;-71
2022/12/27 00:29:32;;;;;;;;;;;;;;;;;;5050892;28;1918;-71
2022/12/27 00:31:59;;;;;;;;;;;;;;;;;;5047833;28;1124;-70
2022/12/27 00:34:25;;;;;;;;;;;;;;;;;;5050375;28;886;-73
2022/12/27 00:36:51;;;;;;;;;;;;;;;;;;5047476;28;1381;-70
2022/12/27 00:39:18;;;;;;;;;;;;;;;;;;5049349;28;1346;-71
2022/12/27 00:41:45;;;;;;;;;;;;;;;;;;5052228;28;836;-71
2022/12/27 00:44:11;;;;;;;;;;;;;;;;;;5050313;28;1008;-70
2022/12/27 00:46:37;;;;;;;;;;;;;;;;;;5049241;28;1367;-70
2022/12/27 00:49:03;;;;;;;;;;;;;;;;;;5049409;28;1918;-71
2022/12/27 00:51:29;;;;;;;;;;;;;;;;;;5047824;28;957;-71
2022/12/27 00:53:56;;;;;;;;;;;;;;;;;;5052771;28;1075;-71
2022/12/27 00:56:24;;;;;;;;;;;;;;;;;;5049349;28;1288;-71
2022/12/27 00:58:52;;;;;;;;;;;;;;;;;;5050334;28;1139;-71
2022/12/27 01:01:19;;;;;;;;;;;;;;;;;;5051344;28;1064;-71
2022/12/27 01:03:45;;;;;;;;;;;;;;;;;;5052224;28;782;-71
2022/12/27 01:06:13;;;;;;;;;;;;;;;;;;5053348;28;1242;-71
2022/12/27 01:08:39;;;;;;;;;;;;;;;;;;5051983;28;1980;-71
2022/12/27 01:11:05;;;;;;;;;;;;;;;;;;5052774;28;977;-71
2022/12/27 01:13:33;;;;;;;;;;;;;;;;;;5051122;28;1222;-71
2022/12/27 01:15:59;;;;;;;;;;;;;;;;;;5051738;28;1371;-73
2022/12/27 01:18:25;;;;;;;;;;;;;;;;;;5051947;28;1116;-71
2022/12/27 01:20:52;;;;;;;;;;;;;;;;;;5052827;28;1119;-71
2022/12/27 01:23:18;;;;;;;;;;;;;;;;;;5049569;28;1136;-71
2022/12/27 01:25:44;;;;;;;;;;;;;;;;;;5047836;28;1262;-71
2022/12/27 01:28:10;;;;;;;;;;;;;;;;;;5047647;28;1200;-71
2022/12/27 01:30:38;;;;;;;;;;;;;;;;;;5048209;28;1910;-71
2022/12/27 01:33:04;;;;;;;;;;;;;;;;;;5048208;28;783;-71
2022/12/27 01:35:30;;;;;;;;;;;;;;;;;;5048174;28;1380;-71
2022/12/27 01:37:56;;;;;;;;;;;;;;;;;;5050133;28;1051;-71
2022/12/27 01:40:23;;;;;;;;;;;;;;;;;;5048754;28;1130;-71
2022/12/27 01:42:51;;;;;;;;;;;;;;;;;;5049195;28;810;-71
2022/12/27 01:45:17;;;;;;;;;;;;;;;;;;5048358;28;1274;-71
2022/12/27 01:47:46;;;;;;;;;;;;;;;;;;5048930;28;1177;-71
2022/12/27 01:50:15;;;;;;;;;;;;;;;;;;5051062;28;1973;-70
2022/12/27 01:52:44;;;;;;;;;;;;;;;;;;5050235;28;992;-71
2022/12/27 01:55:12;;;;;;;;;;;;;;;;;;5051467;28;1332;-71
2022/12/27 01:57:38;;;;;;;;;;;;;;;;;;5051492;28;933;-72
2022/12/27 02:00:05;;;;;;;;;;;;;;;;;;5049549;28;1447;-71
2022/12/27 02:02:31;;;;;;;;;;;;;;;;;;5050839;28;967;-71
2022/12/27 02:04:59;;;;;;;;;;;;;;;;;;5051138;28;1329;-71
2022/12/27 02:07:27;;;;;;;;;;;;;;;;;;5051240;28;787;-71
2022/12/27 02:09:54;;;;;;;;;;;;;;;;;;5051285;28;1975;-71
2022/12/27 02:12:21;;;;;;;;;;;;;;;;;;5050783;28;992;-71
2022/12/27 02:14:49;;;;;;;;;;;;;;;;;;5049988;28;1371;-71
2022/12/27 02:17:16;;;;;;;;;;;;;;;;;;5049994;28;1128;-71
2022/12/27 02:19:42;;;;;;;;;;;;;;;;;;5051171;28;1047;-72
2022/12/27 02:22:22;;;;;;;;;;;;;;;;;;5050225;28;1060;-71
2022/12/27 02:24:58;;;;;;;;;;;;;;;;;;5048988;28;1357;-71
2022/12/27 02:27:32;;;;;;;;;;;;;;;;;;5053667;28;1036;-71
2022/12/27 02:30:00;;;;;;;;;;;;;;;;;;5065092;22;3699;-74
2022/12/27 02:32:28;;;;;;;;;;;;;;;;;;5054253;28;1077;-74
2022/12/27 02:34:57;;;;;;;;;;;;;;;;;;5048501;28;1361;-74
2022/12/27 02:37:24;;;;;;;;;;;;;;;;;;5036337;28;1649;-74
2022/12/27 02:39:50;;;;;;;;;;;;;;;;;;5035288;28;1400;-74
2022/12/27 02:53:21;;;;;;;;;;;;;;;;;;5033462;28;1142;-73
2022/12/27 02:58:38;;;;;;;;;;;;;;;;;;5031161;28;949;-73
2022/12/27 03:03:55;;;;;;;;;;;;;;;;;;5038643;28;1267;-73
2022/12/27 03:06:40;;;;;;;;;;;;;;;;;;5041812;28;1263;-73
2022/12/27 03:17:33;;;;;;;;;;;;;;;;;;5053741;28;984;-73
2022/12/27 03:25:27;;;;;;;;;;;;;;;;;;5051559;28;1497;-73
2022/12/27 03:33:34;;;;;;;;;;;;;;;;;;5011770;28;1313;-73
2022/12/27 03:38:47;;;;;;;;;;;;;;;;;;5031146;28;1328;-73
2022/12/27 03:43:57;;;;;;;;;;;;;;;;;;5051707;28;1031;-73
2022/12/27 03:46:32;;;;;;;;;;;;;;;;;;5053545;28;1478;-73
2022/12/27 03:49:03;;;;;;;;;;;;;;;;;;5054990;28;1918;-73
2022/12/27 03:51:30;;;;;;;;;;;;;;;;;;5053021;28;1092;-73
2022/12/27 03:53:57;;;;;;;;;;;;;;;;;;5053342;28;767;-73
2022/12/27 03:56:23;;;;;;;;;;;;;;;;;;5052591;28;1425;-73
2022/12/27 03:58:50;;;;;;;;;;;;;;;;;;5053051;28;1374;-73
2022/12/27 04:01:16;;;;;;;;;;;;;;;;;;5051235;28;1172;-73
2022/12/27 04:03:43;;;;;;;;;;;;;;;;;;5051432;28;925;-73
2022/12/27 04:06:10;;;;;;;;;;;;;;;;;;5053382;28;1196;-73
2022/12/27 04:35:57;;;;;;;;;;;;;;;;;;5050484;28;1404;-73
2022/12/27 04:38:24;;;;;;;;;;;;;;;;;;5054007;28;763;-73
2022/12/27 04:57:15;;;;;;;;;;;;;;;;;;5036638;28;1509;-73
2022/12/27 05:02:25;;;;;;;;;;;;;;;;;;5045379;28;1126;-73
2022/12/27 05:04:51;;;;;;;;;;;;;;;;;;5052445;28;1734;-73
2022/12/27 05:15:31;;;;;;;;;;;;;;;;;;5049785;28;1514;-73
2022/12/27 05:17:57;;;;;;;;;;;;;;;;;;5044696;28;1229;-73
2022/12/27 05:20:24;;;;;;;;;;;;;;;;;;5046271;28;1518;-73
2022/12/27 05:25:36;;;;;;;;;;;;;;;;;;5053035;28;965;-73
2022/12/27 05:28:03;;;;;;;;;;;;;;;;;;5053286;28;1076;-73
2022/12/27 05:30:29;;;;;;;;;;;;;;;;;;5052853;28;1971;-73
2022/12/27 05:32:55;;;;;;;;;;;;;;;;;;5048007;28;1138;-73
2022/12/27 05:35:21;;;;;;;;;;;;;;;;;;5032845;28;952;-72
2022/12/27 05:37:48;;;;;;;;;;;;;;;;;;5033023;28;1044;-73
2022/12/27 05:40:14;;;;;;;;;;;;;;;;;;5032911;28;1294;-73
2022/12/27 05:42:41;;;;;;;;;;;;;;;;;;5032318;28;861;-73
2022/12/27 05:45:09;;;;;;;;;;;;;;;;;;5032759;28;831;-73
2022/12/27 05:47:35;;;;;;;;;;;;;;;;;;5032881;28;937;-73
2022/12/27 05:50:01;;;;;;;;;;;;;;;;;;5032462;28;1903;-73
2022/12/27 05:52:27;;;;;;;;;;;;;;;;;;5032110;28;1075;-73
2022/12/27 05:54:53;;;;;;;;;;;;;;;;;;5032648;28;1245;-73
2022/12/27 05:57:20;;;;;;;;;;;;;;;;;;5031484;28;1107;-73
2022/12/27 05:59:47;;;;;;;;;;;;;;;;;;5030917;28;2122;-72
2022/12/27 06:02:13;;;;;;;;;;;;;;;;;;5031285;28;774;-73
2022/12/27 06:04:40;;;;;;;;;;;;;;;;;;5045273;28;1384;-72
2022/12/27 06:07:06;;;;;;;;;;;;;;;;;;5051103;28;1215;-73
2022/12/27 06:09:32;;;;;;;;;;;;;;;;;;5052038;28;1973;-73
2022/12/27 06:11:58;;;;;;;;;;;;;;;;;;5050014;28;1300;-72
2022/12/27 06:14:24;;;;;;;;;;;;;;;;;;5052141;28;858;-72
2022/12/27 06:16:52;;;;;;;;;;;;;;;;;;5051740;28;1060;-73
2022/12/27 06:19:18;;;;;;;;;;;;;;;;;;5052214;28;1295;-72
2022/12/27 06:21:44;;;;;;;;;;;;;;;;;;5051538;28;782;-73
2022/12/27 06:24:10;;;;;;;;;;;;;;;;;;5052105;28;1063;-73
2022/12/27 06:26:37;;;;;;;;;;;;;;;;;;5051903;28;1698;-73
2022/12/27 06:29:05;;;;;;;;;;;;;;;;;;5050979;28;1315;-73
2022/12/27 06:31:31;;;;;;;;;;;;;;;;;;5048827;28;1903;-73
2022/12/27 06:33:59;;;;;;;;;;;;;;;;;;5047121;28;949;-73
2022/12/27 06:36:26;;;;;;;;;;;;;;;;;;5031364;28;1063;-73
2022/12/27 06:38:52;;;;;;;;;;;;;;;;;;5029991;28;1326;-73
2022/12/27 06:41:18;;;;;;;;;;;;;;;;;;5030722;28;1091;-73
2022/12/27 06:43:45;;;;;;;;;;;;;;;;;;5031357;28;1059;-73
2022/12/27 06:46:12;;;;;;;;;;;;;;;;;;5031746;28;896;-73
2022/12/27 06:48:38;;;;;;;;;;;;;;;;;;5033018;28;869;-72
2022/12/27 06:51:06;;;;;;;;;;;;;;;;;;5032156;28;1898;-73
2022/12/27 06:53:32;;;;;;;;;;;;;;;;;;5031004;28;855;-73
2022/12/27 06:56:02;;;;;;;;;;;;;;;;;;5031053;28;981;-73
2022/12/27 06:58:29;;;;;;;;;;;;;;;;;;5030884;28;1537;-73
2022/12/27 07:00:55;;;;;;;;;;;;;;;;;;5030927;28;1266;-73
2022/12/27 07:03:21;;;;;;;;;;;;;;;;;;5048941;28;1226;-73
2022/12/27 07:05:47;;;;;;;;;;;;;;;;;;5050664;28;790;-73
2022/12/27 07:08:15;;;;;;;;;;;;;;;;;;5049036;28;1138;-73
2022/12/27 07:10:41;;;;;;;;;;;;;;;;;;5044972;28;1919;-73
2022/12/27 07:13:07;;;;;;;;;;;;;;;;;;5031403;28;1280;-73
2022/12/27 07:15:33;;;;;;;;;;;;;;;;;;5034760;28;930;-72
2022/12/27 07:18:00;;;;;;;;;;;;;;;;;;5034819;28;1056;-73
2022/12/27 07:20:26;;;;;;;;;;;;;;;;;;5034137;28;1393;-72
2022/12/27 07:22:52;;;;;;;;;;;;;;;;;;5033432;28;1060;-72
2022/12/27 07:25:19;;;;;;;;;;;;;;;;;;5034275;28;1060;-73
2022/12/27 07:27:46;;;;;;;;;;;;;;;;;;5049708;28;1802;-73
2022/12/27 07:30:12;;;;;;;;;;;;;;;;;;5049852;28;1965;-73
2022/12/27 07:32:38;;;;;;;;;;;;;;;;;;5046691;28;1281;-73
2022/12/27 07:35:05;;;;;;;;;;;;;;;;;;5044504;28;1239;-73
2022/12/27 07:37:31;;;;;;;;;;;;;;;;;;5043104;28;1290;-73
2022/12/27 07:39:57;;;;;;;;;;;;;;;;;;5043952;28;1375;-73
2022/12/27 07:42:25;;;;;;;;;;;;;;;;;;5041852;28;1214;-73
2022/12/27 07:44:51;;;;;;;;;;;;;;;;;;5040398;28;1191;-73
2022/12/27 07:47:17;;;;;;;;;;;;;;;;;;5044164;28;1215;-73
2022/12/27 07:49:44;;;;;;;;;;;;;;;;;;5043748;28;1462;-74
2022/12/27 07:52:10;;;;;;;;;;;;;;;;;;5039577;28;1993;-73
2022/12/27 07:54:36;;;;;;;;;;;;;;;;;;5033732;28;1107;-73
2022/12/27 07:57:02;;;;;;;;;;;;;;;;;;5049869;28;1108;-73
2022/12/27 07:59:30;;;;;;;;;;;;;;;;;;5053554;28;1397;-73
2022/12/27 08:02:05;;;;;;;;;;;;;;;;;;5051536;28;1579;-73
2022/12/27 08:04:32;;;;;;;;;;;;;;;;;;5053534;28;753;-73
2022/12/27 08:07:00;;;;;;;;;;;;;;;;;;5053573;28;810;-73
2022/12/27 08:09:28;;;;;;;;;;;;;;;;;;5051976;28;1305;-74
2022/12/27 08:11:54;;;;;;;;;;;;;;;;;;5050989;28;1921;-73
2022/12/27 08:14:20;;;;;;;;;;;;;;;;;;5053340;28;830;-73
2022/12/27 08:16:48;;;;;;;;;;;;;;;;;;5053431;28;952;-73
2022/12/27 08:19:14;;;;;;;;;;;;;;;;;;5049019;28;1469;-74
2022/12/27 08:21:40;;;;;;;;;;;;;;;;;;5052138;28;929;-74
2022/12/27 08:24:07;;;;;;;;;;;;;;;;;;5041484;28;1129;-73
2022/12/27 08:26:33;;;;;;;;;;;;;;;;;;5031494;28;1215;-73
2022/12/27 08:28:59;;;;;;;;;;;;;;;;;;5032553;28;1298;-74
2022/12/27 08:31:25;;;;;;;;;;;;;;;;;;5031908;28;1910;-73
2022/12/27 08:36:29;;;;;;;;;;;;;;;;;;5119782;27;2010;-71
2022/12/27 08:38:55;;;;;;;;;;;;;;;;;;5106815;28;1279;-71
2022/12/27 08:41:22;;;;;;;;;;;;;;;;;;5108077;28;980;-71
2022/12/27 08:43:48;;;;;;;;;;;;;;;;;;5108547;28;1553;-72
2022/12/27 08:46:14;;;;;;;;;;;;;;;;;;5108924;28;1440;-73
2022/12/27 08:48:40;;;;;;;;;;;;;;;;;;5108851;28;1079;-72
2022/12/27 08:51:07;;;;;;;;;;;;;;;;;;5110877;28;1126;-72
2022/12/27 08:53:35;;;;;;;;;;;;;;;;;;5122945;27;959;-72
2022/12/27 08:56:01;;;;;;;;;;;;;;;;;;5128161;28;1917;-71
2022/12/27 08:58:27;;;;;;;;;;;;;;;;;;5128818;28;1035;-73
2022/12/27 09:00:53;;;;;;;;;;;;;;;;;;5128763;28;1011;-73
2022/12/27 09:03:20;;;;;;;;;;;;;;;;;;5109329;28;1126;-73
2022/12/27 09:05:48;;;;;;;;;;;;;;;;;;5109612;28;1433;-73
2022/12/27 09:08:14;;;;;;;;;;;;;;;;;;5110084;28;1201;-73
2022/12/27 09:10:42;;;;;;;;;;;;;;;;;;5128455;27;1087;-73
2022/12/27 09:13:08;;;;;;;;;;;;;;;;;;5109220;27;1068;-73
2022/12/27 09:15:34;;;;;;;;;;;;;;;;;;5128165;27;1921;-73
2022/12/27 09:18:01;;;;;;;;;;;;;;;;;;5109556;28;1343;-74
2022/12/27 09:20:28;;;;;;;;;;;;;;;;;;5109999;28;1365;-74
2022/12/27 09:22:54;;;;;;;;;;;;;;;;;;5127482;28;1066;-73
2022/12/27 09:25:20;;;;;;;;;;;;;;;;;;5109754;28;1336;-72
2022/12/27 09:27:48;;;;;;;;;;;;;;;;;;5144229;27;1106;-74
2022/12/27 09:30:14;;;;;;;;;;;;;;;;;;5109798;28;885;-73
2022/12/27 09:32:40;;;;;;;;;;;;;;;;;;5109582;28;1165;-74
2022/12/27 09:35:07;;;;;;;;;;;;;;;;;;5127352;28;1914;-73
2022/12/27 09:37:33;;;;;;;;;;;;;;;;;;5111664;28;1178;-74
2022/12/27 09:39:59;;;;;;;;;;;;;;;;;;5107388;28;829;-73
2022/12/27 09:42:30;;;;;;;;;;;;;;;;;;5106772;28;1075;-73
2022/12/27 09:45:00;;;;;;;;;;;;;;;;;;5088722;28;1305;-74
2022/12/27 09:47:26;;;;;;;;;;;;;;;;;;5096150;28;1074;-73
2022/12/27 09:49:53;;;;;;;;;;;;;;;;;;5093294;28;944;-74
2022/12/27 09:52:21;;;;;;;;;;;;;;;;;;5093043;28;1122;-72
2022/12/27 09:54:51;;;;;;;;;;;;;;;;;;5075065;28;1981;-73
2022/12/27 09:57:19;;;;;;;;;;;;;;;;;;5093814;28;889;-73
2022/12/27 09:59:46;;;;;;;;;;;;;;;;;;5094925;28;842;-74
2022/12/27 10:02:16;;;;;;;;;;;;;;;;;;5094373;28;1098;-74
2022/12/27 10:04:42;;;;;;;;;;;;;;;;;;5101397;28;1471;-74
2022/12/27 10:07:10;;;;;;;;;;;;;;;;;;5095223;28;1204;-73
2022/12/27 10:09:41;;;;;;;;;;;;;;;;;;5113720;28;1071;-73
2022/12/27 10:12:09;;;;;;;;;;;;;;;;;;5112829;28;941;-72
2022/12/27 10:14:42;;;;;;;;;;;;;;;;;;5113435;28;1918;-73
2022/12/27 10:17:10;;;;;;;;;;;;;;;;;;5095005;28;1367;-74
2022/12/27 10:19:40;;;;;;;;;;;;;;;;;;5095415;28;1330;-73
2022/12/27 10:22:12;;;;;;;;;;;;;;;;;;5112566;28;798;-74
2022/12/27 10:24:39;;;;;;;;;;;;;;;;;;5095394;28;1327;-74
2022/12/27 10:27:10;;;;;;;;;;;;;;;;;;5113188;28;1031;-73
2022/12/27 10:29:36;;;;;;;;;;;;;;;;;;5113443;28;1118;-73
2022/12/27 10:32:03;;;;;;;;;;;;;;;;;;5112492;28;850;-72
2022/12/27 10:34:30;;;;;;;;;;;;;;;;;;5106786;28;1410;-74
2022/12/27 10:36:57;;;;;;;;;;;;;;;;;;5074595;28;1965;-72
2022/12/27 10:39:25;;;;;;;;;;;;;;;;;;5074684;28;1299;-74
2022/12/27 10:41:54;;;;;;;;;;;;;;;;;;5104628;28;1070;-73
2022/12/27 10:44:22;;;;;;;;;;;;;;;;;;5093776;28;1517;-73
2022/12/27 10:46:49;;;;;;;;;;;;;;;;;;5112584;28;1042;-73
2022/12/27 10:49:21;;;;;;;;;;;;;;;;;;5101728;28;971;-74
2022/12/27 10:51:47;;;;;;;;;;;;;;;;;;5091464;28;1067;-74
2022/12/27 10:54:15;;;;;;;;;;;;;;;;;;5091905;28;1386;-74
2022/12/27 10:56:43;;;;;;;;;;;;;;;;;;5092228;28;1918;-74
2022/12/27 10:59:11;;;;;;;;;;;;;;;;;;5090973;28;941;-74
2022/12/27 11:01:37;;;;;;;;;;;;;;;;;;5074442;28;1372;-74
2022/12/27 11:04:11;;;;;;;;;;;;;;;;;;5092888;28;1287;-74
2022/12/27 11:06:37;;;;;;;;;;;;;;;;;;5093190;28;1058;-75
2022/12/27 11:09:17;;;;;;;;;;;;;;;;;;5095896;28;2019;-74
2022/12/27 11:11:43;;;;;;;;;;;;;;;;;;5109923;28;1832;-74
2022/12/27 11:14:10;;;;;;;;;;;;;;;;;;5090594;28;1767;-74
2022/12/27 11:16:36;;;;;;;;;;;;;;;;;;5112048;28;1914;-72
2022/12/27 11:19:02;;;;;;;;;;;;;;;;;;5094681;28;1335;-72
2022/12/27 11:21:28;;;;;;;;;;;;;;;;;;5091625;28;1641;-73
2022/12/27 11:23:55;;;;;;;;;;;;;;;;;;5111990;28;1262;-71
2022/12/27 11:26:24;;;;;;;;;;;;;;;;;;5112712;28;1059;-73
2022/12/27 11:28:53;;;;;;;;;;;;;;;;;;5113119;28;1096;-74
2022/12/27 11:31:20;;;;;;;;;;;;;;;;;;5112616;28;891;-70
2022/12/27 11:33:47;;;;;;;;;;;;;;;;;;5113008;28;833;-73
2022/12/27 11:36:14;;;;;;;;;;;;;;;;;;5112382;28;1901;-73
2022/12/27 11:38:42;;;;;;;;;;;;;;;;;;5111720;28;1213;-73
2022/12/27 11:41:09;;;;;;;;;;;;;;;;;;5089740;28;1144;-74
2022/12/27 11:43:37;;;;;;;;;;;;;;;;;;5110676;28;1111;-72
2022/12/27 11:46:03;;;;;;;;;;;;;;;;;;5111409;28;1391;-73
2022/12/27 11:48:30;;;;;;;;;;;;;;;;;;5093401;28;1373;-74
2022/12/27 11:51:00;;;;;;;;;;;;;;;;;;5093075;28;1110;-73
2022/12/27 11:53:31;;;;;;;;;;;;;;;;;;5111654;28;941;-73
2022/12/27 11:56:05;;;;;;;;;;;;;;;;;;5093699;28;1914;-72
2022/12/27 11:58:46;;;;;;;;;;;;;;;;;;5112375;28;924;-74
2022/12/27 12:01:26;;;;;;;;;;;;;;;;;;5112111;28;1011;-74
2022/12/27 12:04:04;;;;;;;;;;;;;;;;;;5112200;28;1459;-75
2022/12/27 12:06:31;;;;;;;;;;;;;;;;;;5095076;28;1160;-76
2022/12/27 12:09:16;;;;;;;;;;;;;;;;;;5112611;28;786;-75
2022/12/27 12:11:59;;;;;;;;;;;;;;;;;;5111289;28;1062;-76
2022/12/27 12:14:40;;;;;;;;;;;;;;;;;;5112435;28;1320;-76
2022/12/27 12:17:11;;;;;;;;;;;;;;;;;;5108531;28;1906;-77
2022/12/27 12:19:45;;;;;;;;;;;;;;;;;;5111293;28;1063;-75
2022/12/27 12:22:20;;;;;;;;;;;;;;;;;;5110400;28;1110;-75
2022/12/27 12:24:57;;;;;;;;;;;;;;;;;;5110560;28;1408;-76
2022/12/27 12:27:27;;;;;;;;;;;;;;;;;;5111216;28;1055;-76
2022/12/27 12:30:08;;;;;;;;;;;;;;;;;;5110584;28;937;-74
2022/12/27 12:32:37;;;;;;;;;;;;;;;;;;5107254;28;1230;-75
2022/12/27 12:35:06;;;;;;;;;;;;;;;;;;5091838;28;1412;-73
2022/12/27 12:37:37;;;;;;;;;;;;;;;;;;5111186;28;1980;-75
2022/12/27 12:40:18;;;;;;;;;;;;;;;;;;5110857;28;1130;-76
2022/12/27 12:42:46;;;;;;;;;;;;;;;;;;5107023;28;1626;-74
2022/12/27 12:45:18;;;;;;;;;;;;;;;;;;5110338;28;1386;-76
2022/12/27 12:47:51;;;;;;;;;;;;;;;;;;5110684;28;854;-74
2022/12/27 12:50:21;;;;;;;;;;;;;;;;;;5092299;28;1056;-76
2022/12/27 12:52:51;;;;;;;;;;;;;;;;;;5091837;28;1153;-75
2022/12/27 12:55:25;;;;;;;;;;;;;;;;;;5110705;28;1443;-75
2022/12/27 12:57:54;;;;;;;;;;;;;;;;;;5110956;28;1052;-76
2022/12/27 13:00:23;;;;;;;;;;;;;;;;;;5110878;28;1004;-76
2022/12/27 13:03:09;;;;;;;;;;;;;;;;;;5110089;28;917;-74
2022/12/27 13:05:37;;;;;;;;;;;;;;;;;;5092521;28;1412;-75
2022/12/27 13:08:06;;;;;;;;;;;;;;;;;;5092268;28;1665;-75
2022/12/27 13:10:45;;;;;;;;;;;;;;;;;;5110629;28;1122;-75
2022/12/27 13:13:13;;;;;;;;;;;;;;;;;;5109637;28;1246;-74
2022/12/27 13:15:51;;;;;;;;;;;;;;;;;;5110312;28;1913;-74
2022/12/27 13:18:21;;;;;;;;;;;;;;;;;;5092313;28;1304;-75
2022/12/27 13:20:53;;;;;;;;;;;;;;;;;;5110604;28;773;-75
2022/12/27 13:23:22;;;;;;;;;;;;;;;;;;5112951;28;984;-75
2022/12/27 13:25:50;;;;;;;;;;;;;;;;;;5095659;28;1387;-74
2022/12/27 13:28:27;;;;;;;;;;;;;;;;;;5114336;28;1071;-74
2022/12/27 13:30:56;;;;;;;;;;;;;;;;;;5114174;28;1067;-74
2022/12/27 13:33:25;;;;;;;;;;;;;;;;;;5095119;28;1118;-74
2022/12/27 13:35:59;;;;;;;;;;;;;;;;;;5113982;28;1969;-74
2022/12/27 13:38:29;;;;;;;;;;;;;;;;;;5114518;28;1079;-74
2022/12/27 13:41:05;;;;;;;;;;;;;;;;;;5115027;28;1138;-74
2022/12/27 13:43:36;;;;;;;;;;;;;;;;;;5114395;28;1051;-74
2022/12/27 13:46:08;;;;;;;;;;;;;;;;;;5113947;28;1309;-74
2022/12/27 13:48:40;;;;;;;;;;;;;;;;;;5110368;28;1138;-74
2022/12/27 13:51:16;;;;;;;;;;;;;;;;;;5113434;28;1107;-75
2022/12/27 13:53:57;;;;;;;;;;;;;;;;;;5095094;28;845;-74
2022/12/27 13:56:24;;;;;;;;;;;;;;;;;;5109799;28;1977;-74
2022/12/27 13:59:23;;;;;;;;;;;;;;;;;;5113601;28;886;-74
2022/12/27 14:01:57;;;;;;;;;;;;;;;;;;5112680;28;1067;-74
2022/12/27 14:04:31;;;;;;;;;;;;;;;;;;5113409;28;1404;-73
2022/12/27 14:07:08;;;;;;;;;;;;;;;;;;5113491;28;968;-73
2022/12/27 14:09:52;;;;;;;;;;;;;;;;;;5113620;28;1332;-73
2022/12/27 14:12:33;;;;;;;;;;;;;;;;;;5115403;28;924;-74
2022/12/27 14:15:00;;;;;;;;;;;;;;;;;;5112750;28;1407;-73
2022/12/27 14:17:28;;;;;;;;;;;;;;;;;;5113259;28;2002;-72
2022/12/27 14:20:00;;;;;;;;;;;;;;;;;;5102561;28;1085;-71
2022/12/27 14:22:31;;;;;;;;;;;;;;;;;;5074271;28;1132;-72
2022/12/27 14:25:05;;;;;;;;;;;;;;;;;;5092477;28;1338;-72
2022/12/27 14:27:41;;;;;;;;;;;;;;;;;;5092926;28;936;-72
2022/12/27 14:30:26;;;;;;;;;;;;;;;;;;5092798;28;1079;-73
2022/12/27 14:33:04;;;;;;;;;;;;;;;;;;5091843;28;897;-73
2022/12/27 14:35:38;;;;;;;;;;;;;;;;;;5074041;28;1336;-72
2022/12/27 14:38:32;;;;;;;;;;;;;;;;;;5075395;28;1922;-72
2022/12/27 14:41:19;;;;;;;;;;;;;;;;;;5103336;28;1134;-72
2022/12/27 14:43:55;;;;;;;;;;;;;;;;;;5109025;28;1121;-72
2022/12/27 14:46:42;;;;;;;;;;;;;;;;;;5112624;28;1008;-73
2022/12/27 14:49:19;;;;;;;;;;;;;;;;;;5129601;27;1113;-73
2022/12/27 14:52:00;;;;;;;;;;;;;;;;;;5112947;28;1019;-73
2022/12/27 14:54:32;;;;;;;;;;;;;;;;;;5112171;28;1332;-73
2022/12/27 14:57:01;;;;;;;;;;;;;;;;;;5085590;28;1975;-73
2022/12/27 14:59:30;;;;;;;;;;;;;;;;;;5092349;28;802;-73
2022/12/27 15:01:58;;;;;;;;;;;;;;;;;;5091687;28;620;-74
2022/12/27 15:04:33;;;;;;;;;;;;;;;;;;5090303;28;1379;-73
2022/12/27 15:07:13;;;;;;;;;;;;;;;;;;5092057;28;882;-74
2022/12/27 15:09:39;;;;;;;;;;;;;;;;;;5092009;28;1083;-73
2022/12/27 15:12:12;;;;;;;;;;;;;;;;;;5091256;28;826;-73
2022/12/27 15:14:46;;;;;;;;;;;;;;;;;;5090409;28;1300;-73
2022/12/27 15:17:14;;;;;;;;;;;;;;;;;;5091748;28;1910;-73
2022/12/27 15:19:44;;;;;;;;;;;;;;;;;;5091944;28;1117;-73
2022/12/27 15:22:15;;;;;;;;;;;;;;;;;;5090957;28;1110;-73
2022/12/27 15:24:43;;;;;;;;;;;;;;;;;;5091815;28;1345;-73
2022/12/27 15:27:11;;;;;;;;;;;;;;;;;;5090174;28;1263;-73
2022/12/27 15:29:44;;;;;;;;;;;;;;;;;;5092078;28;919;-73
2022/12/27 15:32:15;;;;;;;;;;;;;;;;;;5091298;28;904;-73
2022/12/27 15:34:45;;;;;;;;;;;;;;;;;;5091869;28;1375;-73
2022/12/27 15:37:32;;;;;;;;;;;;;;;;;;5091837;28;1973;-73
2022/12/27 15:39:59;;;;;;;;;;;;;;;;;;5082452;28;2008;-73
2022/12/27 15:42:33;;;;;;;;;;;;;;;;;;5085575;28;1339;-72
2022/12/27 15:45:00;;;;;;;;;;;;;;;;;;5088623;28;1555;-73
2022/12/27 15:47:31;;;;;;;;;;;;;;;;;;5094998;28;1466;-73
2022/12/27 15:50:07;;;;;;;;;;;;;;;;;;5073123;28;1232;-72
2022/12/27 15:52:35;;;;;;;;;;;;;;;;;;5106759;28;1236;-72
2022/12/27 15:55:09;;;;;;;;;;;;;;;;;;5091494;28;1319;-73
2022/12/27 15:57:38;;;;;;;;;;;;;;;;;;5091449;28;1969;-73
2022/12/27 16:00:14;;;;;;;;;;;;;;;;;;5091361;28;1078;-73
2022/12/27 16:02:59;;;;;;;;;;;;;;;;;;5090207;28;1007;-73
2022/12/27 16:05:40;;;;;;;;;;;;;;;;;;5072598;28;1389;-74
2022/12/27 16:08:33;;;;;;;;;;;;;;;;;;5088232;28;1076;-73
2022/12/27 16:11:02;;;;;;;;;;;;;;;;;;5054306;28;1170;-73
2022/12/27 16:13:48;;;;;;;;;;;;;;;;;;5071826;28;1159;-74
2022/12/27 16:16:35;;;;;;;;;;;;;;;;;;5090608;28;1383;-74
2022/12/27 16:19:19;;;;;;;;;;;;;;;;;;5088770;28;1157;-73
2022/12/27 16:21:45;;;;;;;;;;;;;;;;;;5078695;28;1194;-73
2022/12/27 16:24:13;;;;;;;;;;;;;;;;;;5092161;28;1429;-73
2022/12/27 16:26:44;;;;;;;;;;;;;;;;;;5092764;28;1271;-73
2022/12/27 16:29:12;;;;;;;;;;;;;;;;;;5110992;28;686;-73
2022/12/27 16:31:39;;;;;;;;;;;;;;;;;;5091827;28;1127;-73
2022/12/27 16:34:10;;;;;;;;;;;;;;;;;;5092110;28;1358;-73
2022/12/27 16:36:36;;;;;;;;;;;;;;;;;;5110874;28;1947;-73
2022/12/27 16:39:24;;;;;;;;;;;;;;;;;;5092200;28;1313;-73
2022/12/27 16:41:58;;;;;;;;;;;;;;;;;;5091821;28;1068;-73
2022/12/27 16:44:27;;;;;;;;;;;;;;;;;;5110447;28;1419;-72
2022/12/27 16:47:02;;;;;;;;;;;;;;;;;;5110810;28;1079;-73
2022/12/27 16:49:31;;;;;;;;;;;;;;;;;;5110538;28;1051;-73
2022/12/27 16:52:00;;;;;;;;;;;;;;;;;;5091737;28;1261;-73
2022/12/27 16:54:29;;;;;;;;;;;;;;;;;;5110538;28;1422;-73
2022/12/27 16:57:10;;;;;;;;;;;;;;;;;;5112603;28;1909;-73
2022/12/27 16:59:55;;;;;;;;;;;;;;;;;;5095848;28;1260;-73
2022/12/27 17:02:38;;;;;;;;;;;;;;;;;;5099323;28;1119;-73
2022/12/27 17:05:07;;;;;;;;;;;;;;;;;;5075485;28;1372;-73
2022/12/27 17:07:44;;;;;;;;;;;;;;;;;;5096111;28;1154;-73
2022/12/27 17:10:31;;;;;;;;;;;;;;;;;;5114695;28;1059;-72
2022/12/27 17:12:57;;;;;;;;;;;;;;;;;;5094104;28;1733;-72
2022/12/27 17:15:25;;;;;;;;;;;;;;;;;;5088557;28;1908;-74
2022/12/27 17:17:51;;;;;;;;;;;;;;;;;;5114541;28;1982;-72
2022/12/27 17:20:17;;;;;;;;;;;;;;;;;;5114621;28;1238;-72
2022/12/27 17:22:44;;;;;;;;;;;;;;;;;;5113884;28;1045;-70
2022/12/27 17:25:14;;;;;;;;;;;;;;;;;;5114249;28;1476;-72
2022/12/27 17:27:46;;;;;;;;;;;;;;;;;;5110548;28;2286;-75
2022/12/27 17:30:15;;;;;;;;;;;;;;;;;;5105255;28;1031;-75
2022/12/27 17:32:52;;;;;;;;;;;;;;;;;;5080121;28;1346;-74
2022/12/27 17:35:22;;;;;;;;;;;;;;;;;;5048294;28;1331;-73
2022/12/27 17:37:51;;;;;;;;;;;;;;;;;;5048708;28;1934;-73
2022/12/27 17:40:23;;;;;;;;;;;;;;;;;;5045009;28;923;-73
2022/12/27 17:45:38;;;;;;;;;;;;;;;;;;5019295;28;1464;-74
2022/12/27 17:48:14;;;;;;;;;;;;;;;;;;5022540;28;1078;-74
2022/12/27 17:50:43;;;;;;;;;;;;;;;;;;5061203;27;936;-78
2022/12/27 17:58:45;;;;;;;;;;;;;;;;;;5040866;27;2000;-74
2022/12/27 18:01:15;;;;;;;;;;;;;;;;;;5047732;27;1425;-74
2022/12/27 18:03:46;;;;;;;;;;;;;;;;;;5055194;27;738;-74
2022/12/27 18:06:12;;;;;;;;;;;;;;;;;;5045360;27;1476;-74
2022/12/27 18:08:39;;;;;;;;;;;;;;;;;;5045807;28;1702;-73
2022/12/27 18:11:05;;;;;;;;;;;;;;;;;;5094117;28;998;-71
2022/12/27 18:13:32;;;;;;;;;;;;;;;;;;5090203;28;1451;-72
2022/12/27 18:15:58;;;;;;;;;;;;;;;;;;5107931;28;1408;-72
2022/12/27 18:18:26;;;;;;;;;;;;;;;;;;5102700;28;1926;-71
2022/12/27 18:20:55;;;;;;;;;;;;;;;;;;5110315;28;1221;-71
2022/12/27 18:23:21;;;;;;;;;;;;;;;;;;5108113;28;1418;-71
2022/12/27 18:25:49;;;;;;;;;;;;;;;;;;5106350;28;1488;-71
2022/12/27 18:28:16;;;;;;;;;;;;;;;;;;5091900;28;1173;-73
2022/12/27 18:30:43;;;;;;;;;;;;;;;;;;5110534;28;1091;-72
2022/12/27 18:33:09;;;;;;;;;;;;;;;;;;5105556;28;1458;-73
2022/12/27 18:35:35;;;;;;;;;;;;;;;;;;5110221;28;1409;-72
2022/12/27 18:38:05;;;;;;;;;;;;;;;;;;5110309;28;1913;-73
2022/12/27 18:40:31;;;;;;;;;;;;;;;;;;5108700;28;1326;-73
2022/12/27 18:42:57;;;;;;;;;;;;;;;;;;5107164;28;1464;-74
2022/12/27 18:45:25;;;;;;;;;;;;;;;;;;5107926;28;1401;-75
2022/12/27 18:47:52;;;;;;;;;;;;;;;;;;5110257;28;1105;-75
2022/12/27 18:50:19;;;;;;;;;;;;;;;;;;5091147;28;1688;-75
2022/12/27 18:52:46;;;;;;;;;;;;;;;;;;5094633;28;1086;-75
2022/12/27 18:55:15;;;;;;;;;;;;;;;;;;5093766;28;1458;-75
2022/12/27 18:57:41;;;;;;;;;;;;;;;;;;5092340;28;1894;-76
2022/12/27 19:00:13;;;;;;;;;;;;;;;;;;5111387;28;1142;-76
2022/12/27 19:02:39;;;;;;;;;;;;;;;;;;5110283;28;1106;-75
2022/12/27 19:05:12;;;;;;;;;;;;;;;;;;5092228;28;1383;-75
2022/12/27 19:07:38;;;;;;;;;;;;;;;;;;5111347;28;1102;-75
2022/12/27 19:10:05;;;;;;;;;;;;;;;;;;5111299;28;896;-75